Time;durP1;ratioP1;P1;durP2;ratioP2;P2;SDS_P1;SDS_P2;PMS_P1;PMS_P2;Temp;Humidity;BMP_temperature;BMP_pressure;BME280_temperature;BME280_humidity;BME280_pressure;Samples;Min_cycle;Max_cycle;Signal;HPM_P1;HPM_P2
2023/09/03 00:00:37;;;;;;;36.33;32.53;;;19.60;99.90;;;;;;5015857;28;20703;-85
2023/09/03 00:03:04;;;;;;;38.13;34.20;;;19.60;99.90;;;;;;4998735;28;20186;-85
2023/09/03 00:05:29;;;;;;;35.47;31.57;;;19.60;99.90;;;;;;4998345;28;20179;-84
2023/09/03 00:07:55;;;;;;;35.40;31.70;;;19.50;99.90;;;;;;4997943;28;20662;-84
2023/09/03 00:10:21;;;;;;;37.13;33.13;;;19.50;99.90;;;;;;4998585;28;20667;-84
2023/09/03 00:12:47;;;;;;;37.33;33.33;;;19.40;99.90;;;;;;4998172;28;20697;-84
2023/09/03 00:15:12;;;;;;;36.57;32.23;;;19.40;99.90;;;;;;4998236;28;20248;-84
2023/09/03 00:17:39;;;;;;;36.97;32.97;;;19.40;99.90;;;;;;4998528;28;20177;-85
2023/09/03 00:20:05;;;;;;;35.73;32.03;;;19.30;99.90;;;;;;4998083;28;20211;-84
2023/09/03 00:22:31;;;;;;;36.57;32.77;;;19.40;99.90;;;;;;5015299;28;20174;-83
2023/09/03 00:24:57;;;;;;;35.93;32.23;;;19.30;99.90;;;;;;4997958;28;20244;-85
2023/09/03 00:27:22;;;;;;;37.40;33.37;;;19.30;99.90;;;;;;4998068;28;20185;-85
2023/09/03 00:29:48;;;;;;;37.23;33.10;;;19.30;99.90;;;;;;5015503;28;20170;-84
2023/09/03 00:32:14;;;;;;;39.60;32.27;;;19.20;99.90;;;;;;4997549;28;20217;-84
2023/09/03 00:34:39;;;;;;;36.20;32.37;;;19.20;99.90;;;;;;4997838;28;20704;-84
2023/09/03 00:37:05;;;;;;;37.67;33.57;;;19.10;99.90;;;;;;5015250;28;20640;-85
2023/09/03 00:39:32;;;;;;;37.07;33.10;;;19.00;99.90;;;;;;4998030;28;20177;-83
2023/09/03 00:41:58;;;;;;;40.37;35.70;;;19.00;99.90;;;;;;4997951;28;20206;-86
2023/09/03 00:44:24;;;;;;;38.93;34.70;;;19.00;99.90;;;;;;4997910;28;20170;-84
2023/09/03 00:46:49;;;;;;;40.13;35.23;;;19.00;99.90;;;;;;4997999;28;20177;-84
2023/09/03 00:49:20;;;;;;;39.87;34.33;;;18.90;99.90;;;;;;5000423;28;20190;-84
2023/09/03 00:51:45;;;;;;;42.10;35.67;;;18.80;99.90;;;;;;5004476;28;20226;-83
2023/09/03 00:54:13;;;;;;;40.27;35.20;;;18.80;99.90;;;;;;4997525;28;20182;-84
2023/09/03 00:56:39;;;;;;;40.60;35.30;;;18.90;99.90;;;;;;4997392;28;20574;-84
2023/09/03 00:59:06;;;;;;;38.67;34.47;;;18.90;99.90;;;;;;4997454;28;20285;-84
2023/09/03 01:01:32;;;;;;;41.07;34.57;;;18.90;99.90;;;;;;4997550;28;20215;-84
2023/09/03 01:03:58;;;;;;;39.70;34.50;;;18.80;99.90;;;;;;4997382;28;20622;-84
2023/09/03 01:06:25;;;;;;;41.47;34.90;;;18.70;99.90;;;;;;5014011;28;20173;-81
2023/09/03 01:08:51;;;;;;;40.33;34.00;;;18.70;99.90;;;;;;5022457;28;20174;-82
2023/09/03 01:11:42;;;;;;;39.43;35.23;;;18.70;99.90;;;;;;5008157;28;20194;-84
2023/09/03 01:14:26;;;;;;;41.70;34.27;;;18.70;99.90;;;;;;4997137;28;20199;-84
2023/09/03 01:17:02;;;;;;;42.13;34.07;;;18.60;99.90;;;;;;4998245;28;20170;-84
2023/09/03 01:19:45;;;;;;;37.20;33.17;;;18.60;99.90;;;;;;4997075;28;20184;-84
2023/09/03 01:22:30;;;;;;;42.00;36.17;;;18.60;99.90;;;;;;4997057;28;20202;-84
2023/09/03 01:25:31;;;;;;;40.03;35.03;;;18.60;99.90;;;;;;5014411;28;20180;-84
2023/09/03 01:28:26;;;;;;;40.53;34.70;;;18.50;99.90;;;;;;4997075;28;20187;-83
2023/09/03 01:31:07;;;;;;;40.97;35.03;;;18.50;99.90;;;;;;5014630;28;20635;-83
2023/09/03 01:33:34;;;;;;;40.17;35.53;;;18.50;99.90;;;;;;5014618;28;20213;-83
2023/09/03 01:36:02;;;;;;;41.83;35.67;;;18.40;99.90;;;;;;4997180;28;20181;-84
2023/09/03 01:38:28;;;;;;;41.83;35.23;;;18.50;99.90;;;;;;5020322;28;20254;-82
2023/09/03 01:40:59;;;;;;;41.33;35.90;;;18.40;99.90;;;;;;5038766;28;20211;-82
2023/09/03 01:43:25;;;;;;;41.40;36.90;;;18.50;99.90;;;;;;5031415;28;20608;-83
2023/09/03 01:46:16;;;;;;;44.67;36.27;;;18.50;99.90;;;;;;5016261;28;20172;-83
2023/09/03 01:49:09;;;;;;;42.60;36.53;;;18.40;99.90;;;;;;4997518;28;20711;-83
2023/09/03 01:51:37;;;;;;;46.23;36.17;;;18.40;99.90;;;;;;4999280;28;20640;-83
2023/09/03 01:54:06;;;;;;;42.13;34.80;;;18.30;99.90;;;;;;4996900;28;20199;-83
2023/09/03 01:56:39;;;;;;;42.00;36.03;;;18.30;99.90;;;;;;4996851;28;20179;-84
2023/09/03 01:59:18;;;;;;;41.73;37.20;;;18.20;99.90;;;;;;5014195;28;20663;-84
2023/09/03 02:01:45;;;;;;;41.83;35.47;;;18.10;99.90;;;;;;4996464;28;20216;-84
2023/09/03 02:04:11;;;;;;;43.17;37.07;;;18.10;99.90;;;;;;4995805;28;20174;-86
2023/09/03 02:06:37;;;;;;;43.90;37.70;;;18.10;99.90;;;;;;4996550;28;20188;-84
2023/09/03 02:09:03;;;;;;;42.37;36.97;;;18.10;99.90;;;;;;4995985;28;20216;-84
2023/09/03 02:11:28;;;;;;;44.43;36.63;;;18.20;99.90;;;;;;4996059;28;20200;-83
2023/09/03 02:13:54;;;;;;;41.67;35.77;;;18.20;99.90;;;;;;5013612;28;20188;-84
2023/09/03 02:16:20;;;;;;;39.40;35.10;;;18.30;99.90;;;;;;4996034;28;20253;-85
2023/09/03 02:18:45;;;;;;;43.87;37.27;;;18.30;99.90;;;;;;4996292;28;20173;-86
2023/09/03 02:21:11;;;;;;;45.93;37.57;;;18.30;99.90;;;;;;4995989;28;20237;-86
2023/09/03 02:23:37;;;;;;;41.33;36.43;;;18.30;99.90;;;;;;4996252;28;20281;-84
2023/09/03 02:26:03;;;;;;;41.73;36.43;;;18.40;99.90;;;;;;5013633;28;20710;-84
2023/09/03 02:28:29;;;;;;;41.03;35.57;;;18.40;99.90;;;;;;4996706;28;20173;-85
2023/09/03 02:30:55;;;;;;;40.23;35.80;;;18.50;99.90;;;;;;4995973;28;20177;-85
2023/09/03 02:33:22;;;;;;;42.00;36.87;;;18.60;99.90;;;;;;4995926;28;20276;-84
2023/09/03 02:35:48;;;;;;;39.43;34.73;;;18.40;99.90;;;;;;4996137;28;20555;-85
2023/09/03 02:38:14;;;;;;;39.80;35.50;;;18.30;99.90;;;;;;4996254;28;20178;-84
2023/09/03 02:40:40;;;;;;;41.33;36.00;;;18.20;99.90;;;;;;5010520;28;20255;-83
2023/09/03 02:43:06;;;;;;;41.50;36.40;;;18.30;99.90;;;;;;5000550;28;20183;-84
2023/09/03 02:45:32;;;;;;;39.70;35.40;;;18.30;99.90;;;;;;4995742;28;20169;-84
2023/09/03 02:47:57;;;;;;;41.23;34.23;;;18.20;99.90;;;;;;4995531;28;20184;-85
2023/09/03 02:50:23;;;;;;;44.43;36.00;;;18.20;99.90;;;;;;4995589;28;20720;-82
2023/09/03 02:52:49;;;;;;;44.43;36.20;;;18.20;99.90;;;;;;4995682;28;20264;-83
2023/09/03 02:55:15;;;;;;;42.40;36.43;;;18.10;99.90;;;;;;4995499;28;20459;-83
2023/09/03 02:57:41;;;;;;;41.83;36.27;;;18.10;99.90;;;;;;5013224;28;20207;-83
2023/09/03 03:00:08;;;;;;;40.97;36.17;;;18.10;99.90;;;;;;4995385;28;20582;-83
2023/09/03 03:02:34;;;;;;;41.87;35.67;;;18.00;99.90;;;;;;5013044;28;20307;-85
2023/09/03 03:05:01;;;;;;;43.37;35.10;;;18.00;99.90;;;;;;4995608;28;20258;-84
2023/09/03 03:07:26;;;;;;;42.90;35.73;;;18.00;99.90;;;;;;4979531;28;20184;-84
2023/09/03 03:09:52;;;;;;;41.77;35.23;;;18.10;99.90;;;;;;4995641;28;20173;-84
2023/09/03 03:12:18;;;;;;;42.97;35.47;;;18.10;99.90;;;;;;4995428;28;20226;-84
2023/09/03 03:14:45;;;;;;;44.20;37.00;;;18.10;99.90;;;;;;5012982;28;20208;-84
2023/09/03 03:17:10;;;;;;;39.70;34.97;;;18.10;99.90;;;;;;4997572;28;20181;-83
2023/09/03 03:19:36;;;;;;;39.63;34.90;;;18.00;99.90;;;;;;4999108;28;20195;-83
2023/09/03 03:22:02;;;;;;;40.77;34.37;;;18.00;99.90;;;;;;4998924;28;20277;-83
2023/09/03 03:24:28;;;;;;;42.80;34.63;;;18.00;99.90;;;;;;4999175;28;20661;-84
2023/09/03 03:26:53;;;;;;;43.60;36.20;;;17.90;99.90;;;;;;4999041;28;20264;-84
2023/09/03 03:29:19;;;;;;;42.67;35.27;;;17.80;99.90;;;;;;4999297;28;20654;-84
2023/09/03 03:31:46;;;;;;;40.97;35.20;;;17.80;99.90;;;;;;5016378;28;20533;-84
2023/09/03 03:34:11;;;;;;;43.33;35.30;;;17.70;99.90;;;;;;4998917;28;20177;-85
2023/09/03 03:36:37;;;;;;;45.60;36.87;;;17.70;99.90;;;;;;4999066;28;20187;-84
2023/09/03 03:39:03;;;;;;;45.07;37.70;;;17.60;99.90;;;;;;4998897;28;20177;-85
2023/09/03 03:41:29;;;;;;;45.60;37.07;;;17.50;99.90;;;;;;4998555;28;20216;-85
2023/09/03 03:43:54;;;;;;;50.27;39.27;;;17.60;99.90;;;;;;4998686;28;20265;-85
2023/09/03 03:46:20;;;;;;;47.03;38.93;;;17.50;99.90;;;;;;4998422;28;20229;-85
2023/09/03 03:48:48;;;;;;;50.50;39.53;;;17.50;99.90;;;;;;4998585;28;20274;-85
2023/09/03 03:51:14;;;;;;;53.17;40.80;;;17.50;99.90;;;;;;4998556;28;20182;-85
2023/09/03 03:53:41;;;;;;;49.30;40.10;;;17.40;99.90;;;;;;4999152;28;20270;-84
2023/09/03 03:56:08;;;;;;;54.67;42.37;;;17.40;99.90;;;;;;5016297;28;20172;-85
2023/09/03 03:58:39;;;;;;;54.80;42.77;;;17.30;99.90;;;;;;4998982;28;20171;-85
2023/09/03 04:01:15;;;;;;;55.63;40.67;;;17.40;99.90;;;;;;5001750;28;20576;-85
2023/09/03 04:03:41;;;;;;;56.47;42.17;;;17.40;99.90;;;;;;4999455;28;20187;-84
2023/09/03 04:06:07;;;;;;;52.50;40.93;;;17.40;99.90;;;;;;4998699;28;20261;-85
2023/09/03 04:08:35;;;;;;;60.03;42.50;;;17.40;99.90;;;;;;5016746;28;20199;-85
2023/09/03 04:11:06;;;;;;;57.77;42.37;;;17.30;99.90;;;;;;4999427;28;20178;-85
2023/09/03 04:13:32;;;;;;;57.67;42.17;;;17.30;99.90;;;;;;4999381;28;20186;-85
2023/09/03 04:15:58;;;;;;;65.67;44.73;;;17.30;99.90;;;;;;5016406;28;20197;-85
2023/09/03 04:18:25;;;;;;;60.10;43.87;;;17.30;99.90;;;;;;5000131;28;20683;-85
2023/09/03 04:20:56;;;;;;;63.43;43.57;;;17.30;99.90;;;;;;4999426;28;20682;-85
2023/09/03 04:23:22;;;;;;;63.73;45.40;;;17.30;99.90;;;;;;4998023;28;20631;-85
2023/09/03 04:25:48;;;;;;;65.70;45.40;;;17.30;99.90;;;;;;4998043;28;20231;-85
2023/09/03 04:28:15;;;;;;;67.30;47.10;;;17.30;99.90;;;;;;4997750;28;20180;-85
2023/09/03 04:30:41;;;;;;;62.70;45.37;;;17.30;99.90;;;;;;4997824;28;20179;-85
2023/09/03 04:33:07;;;;;;;61.13;44.83;;;17.40;99.90;;;;;;5015560;28;20573;-85
2023/09/03 04:35:36;;;;;;;59.67;43.60;;;17.40;99.90;;;;;;4998017;28;20229;-85
2023/09/03 04:38:03;;;;;;;63.37;44.97;;;17.50;99.90;;;;;;4997967;28;20174;-85
2023/09/03 04:40:36;;;;;;;63.33;45.50;;;17.40;99.90;;;;;;4998410;28;20220;-85
2023/09/03 04:43:06;;;;;;;60.30;43.87;;;17.60;99.90;;;;;;4997645;28;20233;-85
2023/09/03 04:45:32;;;;;;;60.37;43.70;;;17.70;99.90;;;;;;4997726;28;20179;-85
2023/09/03 04:48:01;;;;;;;61.07;44.53;;;17.80;99.90;;;;;;4997768;28;20193;-85
2023/09/03 04:50:26;;;;;;;62.80;43.97;;;17.70;99.90;;;;;;4998818;28;20191;-84
2023/09/03 04:52:55;;;;;;;61.70;44.43;;;17.80;99.90;;;;;;5000665;28;20212;-84
2023/09/03 04:55:21;;;;;;;61.07;44.23;;;17.70;99.90;;;;;;4998027;28;20180;-85
2023/09/03 04:57:47;;;;;;;61.20;44.67;;;17.70;99.90;;;;;;4997074;28;20182;-85
2023/09/03 05:00:13;;;;;;;63.43;43.67;;;17.70;99.90;;;;;;5015105;28;20198;-85
2023/09/03 05:02:39;;;;;;;64.67;45.03;;;17.70;99.90;;;;;;4997316;28;20298;-85
2023/09/03 05:05:05;;;;;;;63.10;43.97;;;17.70;99.90;;;;;;5014629;28;20169;-85
2023/09/03 05:07:31;;;;;;;65.10;43.80;;;17.70;99.90;;;;;;4997625;28;20182;-85
2023/09/03 05:09:57;;;;;;;62.77;45.07;;;17.60;99.90;;;;;;4997264;28;20170;-84
2023/09/03 05:12:23;;;;;;;62.80;44.50;;;17.60;99.90;;;;;;4997071;28;20757;-85
2023/09/03 05:14:49;;;;;;;63.10;45.77;;;17.70;99.90;;;;;;4997250;28;20260;-84
2023/09/03 05:17:15;;;;;;;63.50;44.13;;;17.70;99.90;;;;;;5014753;28;20514;-85
2023/09/03 05:19:41;;;;;;;62.67;44.60;;;17.50;99.90;;;;;;4997037;28;20182;-84
2023/09/03 05:22:07;;;;;;;65.87;45.63;;;17.40;99.90;;;;;;4996884;28;20233;-85
2023/09/03 05:24:33;;;;;;;63.03;45.67;;;17.40;99.90;;;;;;4997035;28;20172;-85
2023/09/03 05:26:58;;;;;;;66.30;46.50;;;17.40;99.90;;;;;;4996760;28;20264;-84
2023/09/03 05:29:24;;;;;;;68.37;46.63;;;17.40;99.90;;;;;;4997161;28;20216;-83
2023/09/03 05:31:52;;;;;;;63.27;44.60;;;17.50;99.90;;;;;;5016384;28;20180;-85
2023/09/03 05:34:17;;;;;;;56.57;43.80;;;17.50;99.90;;;;;;4999297;28;20215;-84
2023/09/03 05:36:43;;;;;;;59.83;44.77;;;17.50;99.90;;;;;;5009636;28;20161;-82
2023/09/03 05:39:09;;;;;;;65.07;46.13;;;17.50;99.90;;;;;;5021369;28;20174;-82
2023/09/03 05:41:34;;;;;;;65.13;44.97;;;17.40;99.90;;;;;;5010150;28;20316;-84
2023/09/03 05:44:06;;;;;;;67.90;45.73;;;17.40;99.90;;;;;;4998946;28;20633;-84
2023/09/03 05:46:32;;;;;;;67.43;47.70;;;17.40;99.90;;;;;;5000557;28;20172;-84
2023/09/03 05:48:58;;;;;;;61.93;44.80;;;17.40;99.90;;;;;;4996780;28;20591;-84
2023/09/03 05:51:29;;;;;;;63.17;44.53;;;17.30;99.90;;;;;;5031073;28;20248;-84
2023/09/03 05:53:55;;;;;;;62.83;44.37;;;17.30;99.90;;;;;;4996691;28;20533;-83
2023/09/03 05:56:22;;;;;;;65.07;44.70;;;17.20;99.90;;;;;;4996510;28;20178;-84
2023/09/03 05:58:48;;;;;;;63.10;43.83;;;17.30;99.90;;;;;;4996314;28;20204;-84
2023/09/03 06:01:14;;;;;;;61.83;43.73;;;17.30;99.90;;;;;;4996063;28;20690;-84
2023/09/03 06:03:40;;;;;;;65.20;46.47;;;17.30;99.90;;;;;;4996115;28;20183;-84
2023/09/03 06:06:10;;;;;;;63.97;44.93;;;17.30;99.90;;;;;;4996559;28;20182;-85
2023/09/03 06:08:38;;;;;;;63.37;44.37;;;17.30;99.90;;;;;;5019321;28;20199;-84
2023/09/03 06:11:04;;;;;;;58.87;43.57;;;17.30;99.90;;;;;;5020697;28;20186;-82
2023/09/03 06:13:31;;;;;;;59.10;43.17;;;17.20;99.90;;;;;;5014398;28;20201;-85
2023/09/03 06:15:58;;;;;;;62.77;43.27;;;17.20;99.90;;;;;;5000374;28;20206;-84
2023/09/03 06:18:24;;;;;;;62.37;44.23;;;17.30;99.90;;;;;;5001371;28;20238;-84
2023/09/03 06:20:53;;;;;;;65.30;44.33;;;17.30;99.90;;;;;;4997441;28;20201;-85
2023/09/03 06:23:21;;;;;;;64.23;44.13;;;17.30;99.90;;;;;;4996418;28;20166;-85
2023/09/03 06:25:50;;;;;;;59.03;42.27;;;17.30;99.90;;;;;;4995999;28;20198;-85
2023/09/03 06:28:16;;;;;;;59.47;43.33;;;17.40;99.90;;;;;;4995948;28;20174;-85
2023/09/03 06:30:42;;;;;;;57.60;43.40;;;17.40;99.90;;;;;;4995971;28;20178;-85
2023/09/03 06:33:11;;;;;;;60.23;44.60;;;17.40;99.90;;;;;;5013363;28;20190;-85
2023/09/03 06:35:37;;;;;;;58.77;44.00;;;17.40;99.90;;;;;;4995913;28;20177;-85
2023/09/03 06:38:02;;;;;;;58.00;42.97;;;17.40;99.90;;;;;;4996213;28;20175;-85
2023/09/03 06:40:28;;;;;;;58.97;43.30;;;17.40;99.90;;;;;;4995798;28;20269;-86
2023/09/03 06:42:54;;;;;;;58.03;42.87;;;17.50;99.90;;;;;;4995918;28;20270;-83
2023/09/03 06:45:20;;;;;;;58.07;43.20;;;17.60;99.90;;;;;;4995630;28;20614;-85
2023/09/03 06:47:46;;;;;;;59.13;42.73;;;17.50;99.90;;;;;;4995818;28;20217;-85
2023/09/03 06:50:14;;;;;;;58.23;44.53;;;17.50;99.90;;;;;;4996673;28;20192;-85
2023/09/03 06:52:40;;;;;;;62.50;44.90;;;17.50;99.90;;;;;;4999854;28;20182;-84
2023/09/03 06:55:06;;;;;;;62.00;44.20;;;17.50;99.90;;;;;;4999227;28;20561;-85
2023/09/03 06:57:32;;;;;;;62.80;43.87;;;17.60;99.90;;;;;;4999877;28;20638;-85
2023/09/03 06:59:59;;;;;;;56.53;43.07;;;17.60;99.90;;;;;;4999764;28;20175;-83
2023/09/03 07:02:25;;;;;;;63.33;43.67;;;17.70;99.90;;;;;;4999450;28;20248;-83
2023/09/03 07:04:51;;;;;;;61.60;43.47;;;17.80;99.90;;;;;;4999479;28;20185;-82
2023/09/03 07:07:17;;;;;;;57.13;41.00;;;17.80;99.90;;;;;;4999451;28;20658;-84
2023/09/03 07:09:42;;;;;;;57.93;42.67;;;17.80;99.90;;;;;;4999271;28;20204;-84
2023/09/03 07:12:08;;;;;;;60.23;43.47;;;17.80;99.90;;;;;;4999508;28;20178;-84
2023/09/03 07:14:35;;;;;;;60.00;44.77;;;17.80;99.90;;;;;;4999872;28;20222;-84
2023/09/03 07:17:01;;;;;;;58.43;44.53;;;17.80;99.90;;;;;;4999678;28;20714;-86
2023/09/03 07:19:28;;;;;;;60.27;43.63;;;17.90;99.90;;;;;;4999644;28;20242;-86
2023/09/03 07:21:53;;;;;;;62.07;44.17;;;18.00;99.90;;;;;;4999599;28;20248;-86
2023/09/03 07:24:19;;;;;;;59.50;44.67;;;18.00;99.90;;;;;;5018099;28;20189;-86
2023/09/03 07:26:45;;;;;;;63.03;44.13;;;18.10;99.90;;;;;;5000497;28;20543;-85
2023/09/03 07:29:12;;;;;;;62.67;45.73;;;18.20;99.90;;;;;;5017251;28;20189;-87
2023/09/03 07:31:41;;;;;;;54.67;41.83;;;18.20;99.90;;;;;;5016479;28;20707;-86
2023/09/03 07:34:13;;;;;;;55.27;43.10;;;18.30;99.90;;;;;;5016624;28;20241;-85
2023/09/03 07:36:40;;;;;;;55.73;41.87;;;18.30;99.90;;;;;;4998800;28;20173;-85
2023/09/03 07:39:08;;;;;;;49.03;38.93;;;18.40;99.90;;;;;;5016047;28;20191;-86
2023/09/03 07:41:33;;;;;;;51.27;40.10;;;18.50;99.90;;;;;;5016613;28;20690;-85
2023/09/03 07:43:59;;;;;;;48.53;40.20;;;18.50;99.90;;;;;;4999110;28;20222;-84
2023/09/03 07:46:26;;;;;;;47.47;39.20;;;18.60;99.90;;;;;;4998869;28;20190;-85
2023/09/03 07:48:52;;;;;;;46.87;37.80;;;18.70;99.90;;;;;;5001135;28;20268;-85
2023/09/03 07:51:19;;;;;;;48.50;39.03;;;18.80;99.90;;;;;;5006471;28;20283;-85
2023/09/03 07:53:47;;;;;;;44.23;37.13;;;19.00;99.90;;;;;;5006470;28;20589;-85
2023/09/03 07:56:13;;;;;;;42.87;36.37;;;19.10;99.90;;;;;;5000360;28;20181;-84
2023/09/03 07:58:39;;;;;;;41.23;35.63;;;19.30;99.90;;;;;;5016108;28;20241;-85
2023/09/03 08:01:04;;;;;;;44.03;36.10;;;19.40;99.90;;;;;;4998351;28;20292;-85
2023/09/03 08:03:34;;;;;;;41.50;36.00;;;19.50;99.90;;;;;;4999730;28;20185;-85
2023/09/03 08:06:02;;;;;;;42.00;34.27;;;19.60;99.90;;;;;;5015764;28;20170;-85
2023/09/03 08:08:28;;;;;;;40.73;34.53;;;19.60;99.90;;;;;;4997820;28;20587;-85
2023/09/03 08:10:55;;;;;;;41.00;35.17;;;19.70;99.90;;;;;;5016031;28;20280;-84
2023/09/03 08:13:20;;;;;;;42.00;35.33;;;19.70;99.90;;;;;;5015931;28;20162;-85
2023/09/03 08:15:46;;;;;;;40.13;33.83;;;19.60;99.90;;;;;;4998754;28;20174;-84
2023/09/03 08:18:12;;;;;;;41.33;34.27;;;19.60;99.90;;;;;;4998460;28;20658;-85
2023/09/03 08:20:37;;;;;;;40.73;34.83;;;19.50;99.90;;;;;;4998765;28;20743;-84
2023/09/03 08:23:03;;;;;;;41.03;34.73;;;19.50;99.90;;;;;;4999147;28;20201;-85
2023/09/03 08:25:29;;;;;;;41.77;33.87;;;19.60;99.90;;;;;;4999062;28;20535;-85
2023/09/03 08:27:55;;;;;;;42.43;34.60;;;19.70;99.90;;;;;;5016195;28;20183;-85
2023/09/03 08:30:21;;;;;;;40.20;33.67;;;19.80;99.90;;;;;;5016271;28;20181;-84
2023/09/03 08:32:47;;;;;;;40.13;33.70;;;19.90;99.90;;;;;;4998061;28;20249;-84
2023/09/03 08:35:12;;;;;;;41.00;34.70;;;20.00;99.90;;;;;;5015730;28;20242;-85
2023/09/03 08:37:38;;;;;;;42.80;34.73;;;20.10;99.90;;;;;;4997877;28;20626;-85
2023/09/03 08:40:05;;;;;;;36.87;32.80;;;20.20;99.90;;;;;;4997706;28;20568;-85
2023/09/03 08:42:31;;;;;;;40.80;32.97;;;20.20;99.90;;;;;;4997519;28;20215;-84
2023/09/03 08:45:03;;;;;;;39.27;34.03;;;20.20;99.90;;;;;;5015206;28;20235;-85
2023/09/03 08:47:29;;;;;;;39.50;32.87;;;20.20;99.90;;;;;;4997613;28;20185;-85
2023/09/03 08:49:58;;;;;;;39.27;33.73;;;20.30;99.90;;;;;;4997147;28;20191;-84
2023/09/03 08:52:25;;;;;;;40.73;32.93;;;20.50;99.90;;;;;;5015012;28;20171;-85
2023/09/03 08:54:51;;;;;;;39.00;33.10;;;20.50;99.90;;;;;;4997308;28;20598;-84
2023/09/03 08:57:17;;;;;;;37.70;32.80;;;20.60;99.90;;;;;;4997218;28;20254;-84
2023/09/03 08:59:42;;;;;;;36.57;32.07;;;20.70;99.90;;;;;;5015599;28;20649;-83
2023/09/03 09:02:12;;;;;;;36.97;30.50;;;20.80;99.90;;;;;;4997074;28;20319;-84
2023/09/03 09:04:39;;;;;;;35.50;29.73;;;20.90;99.50;;;;;;4996808;28;20185;-84
2023/09/03 09:07:06;;;;;;;33.83;29.10;;;20.90;96.60;;;;;;4997218;28;20282;-84
2023/09/03 09:09:32;;;;;;;36.90;30.57;;;20.80;96.20;;;;;;5012395;28;20583;-82
2023/09/03 09:12:11;;;;;;;32.03;28.50;;;20.90;96.90;;;;;;5012892;28;20179;-84
2023/09/03 09:15:03;;;;;;;33.03;29.23;;;20.90;96.30;;;;;;5013178;28;20280;-84
2023/09/03 09:17:39;;;;;;;31.17;27.23;;;21.00;97.40;;;;;;4988066;28;20653;-84
2023/09/03 09:20:06;;;;;;;28.77;25.57;;;21.10;93.60;;;;;;4996596;28;20170;-84
2023/09/03 09:22:42;;;;;;;28.47;22.50;;;21.30;91.20;;;;;;5018560;28;20752;-85
2023/09/03 09:25:09;;;;;;;27.00;23.13;;;21.30;90.00;;;;;;4999348;28;20183;-83
2023/09/03 09:27:40;;;;;;;26.27;23.50;;;21.20;90.80;;;;;;4997010;28;20173;-84
2023/09/03 09:30:10;;;;;;;25.57;22.77;;;21.30;91.50;;;;;;4997211;28;20205;-83
2023/09/03 09:32:36;;;;;;;24.33;21.73;;;21.30;87.90;;;;;;4996716;28;20601;-82
2023/09/03 09:35:02;;;;;;;23.70;21.20;;;21.30;89.10;;;;;;5014057;28;20165;-83
2023/09/03 09:37:38;;;;;;;25.93;22.83;;;21.40;86.80;;;;;;5014605;28;20288;-83
2023/09/03 09:40:04;;;;;;;24.87;22.00;;;21.40;86.50;;;;;;5014232;28;20643;-83
2023/09/03 09:42:29;;;;;;;26.57;23.83;;;21.60;85.00;;;;;;4996168;28;20810;-83
2023/09/03 09:44:58;;;;;;;24.83;21.63;;;21.70;85.10;;;;;;4996297;28;20201;-84
2023/09/03 09:47:25;;;;;;;23.43;20.93;;;21.70;79.30;;;;;;5014037;28;20355;-84
2023/09/03 09:49:50;;;;;;;23.87;21.13;;;21.80;81.60;;;;;;4996037;28;20558;-83
2023/09/03 09:52:17;;;;;;;22.23;19.87;;;21.90;78.60;;;;;;4996433;28;20185;-83
2023/09/03 09:54:44;;;;;;;23.47;20.23;;;22.00;77.00;;;;;;4996057;28;20182;-83
2023/09/03 09:57:16;;;;;;;22.17;19.77;;;22.00;70.50;;;;;;4996483;28;20228;-84
2023/09/03 09:59:43;;;;;;;20.70;18.63;;;22.10;70.30;;;;;;4996462;28;20177;-84
2023/09/03 10:02:16;;;;;;;21.57;19.27;;;22.00;73.00;;;;;;4995944;28;20240;-83
2023/09/03 10:04:46;;;;;;;20.83;18.70;;;22.10;72.80;;;;;;5009367;28;20198;-83
2023/09/03 10:07:13;;;;;;;19.67;17.57;;;22.20;74.50;;;;;;5021585;28;20193;-83
2023/09/03 10:09:41;;;;;;;17.37;14.90;;;22.40;63.40;;;;;;5009436;28;20185;-84
2023/09/03 10:12:08;;;;;;;16.50;14.60;;;22.60;60.00;;;;;;5000171;28;20201;-84
2023/09/03 10:14:34;;;;;;;16.07;14.47;;;22.70;55.90;;;;;;4999655;28;20194;-84
2023/09/03 10:17:04;;;;;;;17.93;16.00;;;23.10;51.60;;;;;;4995861;28;20590;-85
2023/09/03 10:19:53;;;;;;;17.83;15.97;;;23.30;49.00;;;;;;4996833;28;20185;-85
2023/09/03 10:22:23;;;;;;;17.63;15.80;;;23.20;48.00;;;;;;4996427;28;20564;-83
2023/09/03 10:25:00;;;;;;;18.17;16.27;;;23.20;45.50;;;;;;4996101;28;20162;-86
2023/09/03 10:27:31;;;;;;;18.73;16.73;;;23.20;46.50;;;;;;4997214;28;20236;-86
2023/09/03 10:30:02;;;;;;;17.83;15.97;;;23.20;47.80;;;;;;4997025;28;20209;-85
2023/09/03 10:32:29;;;;;;;16.80;15.03;;;23.20;46.10;;;;;;4997568;28;20217;-86
2023/09/03 10:34:56;;;;;;;18.20;16.30;;;23.40;50.90;;;;;;4999683;28;20182;-85
2023/09/03 10:37:38;;;;;;;17.93;16.03;;;23.30;42.20;;;;;;5001654;28;20181;-85
2023/09/03 10:40:24;;;;;;;16.03;14.33;;;23.40;44.50;;;;;;5017145;28;20537;-85
2023/09/03 10:43:14;;;;;;;16.27;14.57;;;23.70;42.50;;;;;;5008499;28;20217;-86
2023/09/03 10:45:40;;;;;;;15.97;14.30;;;23.70;36.50;;;;;;5003975;28;20178;-86
2023/09/03 10:48:06;;;;;;;13.57;12.17;;;23.60;36.90;;;;;;4997632;28;20201;-86
2023/09/03 10:50:53;;;;;;;13.03;11.73;;;23.70;37.60;;;;;;5013424;28;20630;-85
2023/09/03 10:53:44;;;;;;;12.40;11.00;;;24.10;29.00;;;;;;4996351;28;20225;-86
2023/09/03 10:56:14;;;;;;;12.87;10.57;;;24.40;1.00;;;;;;5013812;28;20166;-86
2023/09/03 10:59:01;;;;;;;11.77;10.50;;;24.70;1.00;;;;;;5014014;28;20167;-86
2023/09/03 11:01:33;;;;;;;12.50;11.13;;;24.70;1.00;;;;;;4996349;28;20213;-84
2023/09/03 11:04:03;;;;;;;13.60;12.10;;;24.60;1.00;;;;;;5013128;28;20178;-85
2023/09/03 11:06:33;;;;;;;11.87;10.63;;;24.40;1.00;;;;;;4995771;28;20657;-85
2023/09/03 11:08:59;;;;;;;12.47;11.17;;;24.10;1.00;;;;;;4995912;28;20205;-84
2023/09/03 11:11:28;;;;;;;11.20;10.17;;;24.20;1.00;;;;;;5015427;28;20174;-86
2023/09/03 11:13:55;;;;;;;11.63;10.40;;;24.10;1.00;;;;;;4997301;28;20190;-86
2023/09/03 11:16:28;;;;;;;11.97;10.03;;;24.10;1.00;;;;;;4995218;28;20170;-86
2023/09/03 11:18:54;;;;;;;12.47;11.17;;;24.00;1.00;;;;;;4996079;28;20181;-85
2023/09/03 11:21:22;;;;;;;12.33;11.03;;;24.00;1.00;;;;;;4996368;28;20563;-84
2023/09/03 11:24:03;;;;;;;11.97;10.77;;;23.90;1.00;;;;;;5014535;28;20185;-85
2023/09/03 11:26:29;;;;;;;12.10;10.27;;;23.90;1.00;;;;;;4996308;28;20589;-86
2023/09/03 11:28:56;;;;;;;12.43;11.13;;;24.00;1.00;;;;;;4995876;28;20256;-86
2023/09/03 11:31:26;;;;;;;13.60;11.70;;;24.00;1.00;;;;;;5013525;28;20181;-85
2023/09/03 11:33:52;;;;;;;13.10;11.63;;;24.00;1.00;;;;;;5012611;28;20278;-86
2023/09/03 11:36:24;;;;;;;11.93;10.73;;;24.10;1.00;;;;;;5012485;28;20170;-85
2023/09/03 11:38:51;;;;;;;12.53;11.23;;;24.30;1.00;;;;;;4998424;28;20170;-86
2023/09/03 11:41:20;;;;;;;12.73;11.17;;;24.30;1.00;;;;;;4998617;28;20206;-86
2023/09/03 11:43:47;;;;;;;12.47;11.17;;;24.20;1.00;;;;;;4999025;28;20178;-85
2023/09/03 11:46:14;;;;;;;11.33;10.13;;;24.20;1.00;;;;;;4982825;28;20684;-85
2023/09/03 11:48:41;;;;;;;11.63;9.90;;;24.40;1.00;;;;;;4998887;28;20596;-86
2023/09/03 11:51:06;;;;;;;10.50;9.10;;;24.50;1.00;;;;;;4998663;28;20178;-86
2023/09/03 11:53:42;;;;;;;10.70;9.50;;;24.70;1.00;;;;;;4998310;28;20661;-85
2023/09/03 11:56:14;;;;;;;10.13;9.13;;;24.80;1.00;;;;;;4998584;28;20190;-86
2023/09/03 11:58:42;;;;;;;9.10;8.20;;;24.70;1.00;;;;;;4998027;28;20205;-86
2023/09/03 12:01:08;;;;;;;7.80;7.00;;;24.70;1.00;;;;;;4998587;28;20202;-86
2023/09/03 12:03:38;;;;;;;8.07;6.80;;;25.00;1.00;;;;;;5015762;28;20181;-86
2023/09/03 12:06:04;;;;;;;6.93;6.03;;;25.20;1.00;;;;;;4998176;28;20638;-84
2023/09/03 12:08:32;;;;;;;6.40;5.80;;;25.50;1.00;;;;;;5016353;28;20173;-86
2023/09/03 12:10:58;;;;;;;6.73;6.03;;;25.50;1.00;;;;;;5016901;28;20166;-86
2023/09/03 12:13:39;;;;;;;7.83;6.70;;;25.80;1.00;;;;;;5000653;28;20174;-85
2023/09/03 12:16:21;;;;;;;7.90;7.10;;;25.60;1.00;;;;;;5016082;28;20197;-86
2023/09/03 12:18:57;;;;;;;8.23;6.50;;;25.60;1.00;;;;;;5017782;28;20710;-86
2023/09/03 12:21:33;;;;;;;7.30;6.33;;;25.60;1.00;;;;;;4998067;28;20202;-85
2023/09/03 12:24:01;;;;;;;8.87;7.27;;;25.30;1.00;;;;;;4998203;28;20583;-84
2023/09/03 12:26:26;;;;;;;7.20;6.50;;;25.30;1.00;;;;;;4998759;28;20178;-85
2023/09/03 12:28:54;;;;;;;7.97;6.97;;;25.30;1.00;;;;;;4997510;28;20712;-84
2023/09/03 12:31:21;;;;;;;7.97;7.13;;;25.50;1.00;;;;;;4997997;28;20630;-84
2023/09/03 12:33:51;;;;;;;10.37;9.30;;;25.40;1.00;;;;;;4999038;28;20194;-85